sensor_id;sensor_type;location;lat;lon;timestamp;temperature;humidity
22069;DHT22;13887;57.196;-2.100;2023-06-04T00:00:08;13.33;75.20
22069;DHT22;13887;57.196;-2.100;2023-06-04T00:02:36;13.32;75.47
22069;DHT22;13887;57.196;-2.100;2023-06-04T00:05:04;13.30;75.85
22069;DHT22;13887;57.196;-2.100;2023-06-04T00:07:31;13.30;75.75
22069;DHT22;13887;57.196;-2.100;2023-06-04T00:09:58;13.31;75.50
22069;DHT22;13887;57.196;-2.100;2023-06-04T00:12:25;13.31;75.18
22069;DHT22;13887;57.196;-2.100;2023-06-04T00:14:52;13.31;74.93
22069;DHT22;13887;57.196;-2.100;2023-06-04T00:17:19;13.31;75.02
22069;DHT22;13887;57.196;-2.100;2023-06-04T00:19:46;13.32;74.99
22069;DHT22;13887;57.196;-2.100;2023-06-04T00:22:13;13.32;74.92
22069;DHT22;13887;57.196;-2.100;2023-06-04T00:24:40;13.31;74.99
22069;DHT22;13887;57.196;-2.100;2023-06-04T00:27:08;13.27;75.09
22069;DHT22;13887;57.196;-2.100;2023-06-04T00:29:36;13.27;74.98
22069;DHT22;13887;57.196;-2.100;2023-06-04T00:32:03;13.27;75.43
22069;DHT22;13887;57.196;-2.100;2023-06-04T00:34:31;13.24;75.53
22069;DHT22;13887;57.196;-2.100;2023-06-04T00:36:58;13.24;75.51
22069;DHT22;13887;57.196;-2.100;2023-06-04T00:39:25;13.24;75.45
22069;DHT22;13887;57.196;-2.100;2023-06-04T00:41:52;13.23;75.50
22069;DHT22;13887;57.196;-2.100;2023-06-04T00:44:19;13.21;75.78
22069;DHT22;13887;57.196;-2.100;2023-06-04T00:46:48;13.15;76.23
22069;DHT22;13887;57.196;-2.100;2023-06-04T00:49:16;13.16;76.04
22069;DHT22;13887;57.196;-2.100;2023-06-04T00:51:43;13.14;76.38
22069;DHT22;13887;57.196;-2.100;2023-06-04T00:54:10;13.10;76.67
22069;DHT22;13887;57.196;-2.100;2023-06-04T00:56:39;13.05;76.51
22069;DHT22;13887;57.196;-2.100;2023-06-04T00:59:07;13.06;76.44
22069;DHT22;13887;57.196;-2.100;2023-06-04T01:01:54;13.09;76.28
22069;DHT22;13887;57.196;-2.100;2023-06-04T01:04:33;13.08;76.37
22069;DHT22;13887;57.196;-2.100;2023-06-04T01:07:04;13.07;76.66
22069;DHT22;13887;57.196;-2.100;2023-06-04T01:09:35;13.04;76.57
22069;DHT22;13887;57.196;-2.100;2023-06-04T01:12:04;13.04;76.91
22069;DHT22;13887;57.196;-2.100;2023-06-04T01:14:32;13.04;76.53
22069;DHT22;13887;57.196;-2.100;2023-06-04T01:17:20;13.02;76.73
22069;DHT22;13887;57.196;-2.100;2023-06-04T01:22:33;13.02;76.57
22069;DHT22;13887;57.196;-2.100;2023-06-04T01:25:12;13.06;75.92
22069;DHT22;13887;57.196;-2.100;2023-06-04T01:27:52;13.08;76.01
22069;DHT22;13887;57.196;-2.100;2023-06-04T01:30:36;13.08;75.77
22069;DHT22;13887;57.196;-2.100;2023-06-04T01:33:10;13.09;75.50
22069;DHT22;13887;57.196;-2.100;2023-06-04T01:35:37;13.10;75.64
22069;DHT22;13887;57.196;-2.100;2023-06-04T01:38:05;13.08;75.83
22069;DHT22;13887;57.196;-2.100;2023-06-04T01:40:32;13.03;76.05
22069;DHT22;13887;57.196;-2.100;2023-06-04T01:43:00;13.04;76.11
22069;DHT22;13887;57.196;-2.100;2023-06-04T01:45:28;13.02;76.32
22069;DHT22;13887;57.196;-2.100;2023-06-04T01:47:55;12.97;76.49
22069;DHT22;13887;57.196;-2.100;2023-06-04T01:50:23;12.92;76.52
22069;DHT22;13887;57.196;-2.100;2023-06-04T01:52:51;12.94;76.42
22069;DHT22;13887;57.196;-2.100;2023-06-04T01:55:18;12.93;76.65
22069;DHT22;13887;57.196;-2.100;2023-06-04T01:57:46;12.94;76.41
22069;DHT22;13887;57.196;-2.100;2023-06-04T02:00:17;12.89;76.70
22069;DHT22;13887;57.196;-2.100;2023-06-04T02:02:46;12.85;76.71
22069;DHT22;13887;57.196;-2.100;2023-06-04T02:05:15;12.89;76.57
22069;DHT22;13887;57.196;-2.100;2023-06-04T02:07:45;12.91;76.32
22069;DHT22;13887;57.196;-2.100;2023-06-04T02:10:17;12.87;76.51
22069;DHT22;13887;57.196;-2.100;2023-06-04T02:13:00;12.91;76.27
22069;DHT22;13887;57.196;-2.100;2023-06-04T02:15:31;12.87;76.38
22069;DHT22;13887;57.196;-2.100;2023-06-04T02:18:10;12.90;76.15
22069;DHT22;13887;57.196;-2.100;2023-06-04T02:20:39;12.89;76.07
22069;DHT22;13887;57.196;-2.100;2023-06-04T02:23:07;12.92;75.83
22069;DHT22;13887;57.196;-2.100;2023-06-04T02:25:34;12.93;75.59
22069;DHT22;13887;57.196;-2.100;2023-06-04T02:28:01;12.89;75.76
22069;DHT22;13887;57.196;-2.100;2023-06-04T02:30:28;12.88;75.95
22069;DHT22;13887;57.196;-2.100;2023-06-04T02:32:55;12.85;76.21
22069;DHT22;13887;57.196;-2.100;2023-06-04T02:35:23;12.82;75.95
22069;DHT22;13887;57.196;-2.100;2023-06-04T02:37:51;12.84;75.80
22069;DHT22;13887;57.196;-2.100;2023-06-04T02:40:18;12.80;75.74
22069;DHT22;13887;57.196;-2.100;2023-06-04T02:42:45;12.81;75.73
22069;DHT22;13887;57.196;-2.100;2023-06-04T02:45:13;12.78;75.89
22069;DHT22;13887;57.196;-2.100;2023-06-04T02:47:40;12.77;75.97
22069;DHT22;13887;57.196;-2.100;2023-06-04T02:50:07;12.80;75.76
22069;DHT22;13887;57.196;-2.100;2023-06-04T02:52:35;12.84;75.70
22069;DHT22;13887;57.196;-2.100;2023-06-04T02:55:05;12.84;75.67
22069;DHT22;13887;57.196;-2.100;2023-06-04T02:57:33;12.84;75.62
22069;DHT22;13887;57.196;-2.100;2023-06-04T03:00:02;12.77;75.88
22069;DHT22;13887;57.196;-2.100;2023-06-04T03:02:44;12.76;75.91
22069;DHT22;13887;57.196;-2.100;2023-06-04T03:05:13;12.75;75.97
22069;DHT22;13887;57.196;-2.100;2023-06-04T03:07:42;12.72;75.80
22069;DHT22;13887;57.196;-2.100;2023-06-04T03:10:11;12.73;75.91
22069;DHT22;13887;57.196;-2.100;2023-06-04T03:12:38;12.71;75.92
22069;DHT22;13887;57.196;-2.100;2023-06-04T03:19:17;12.70;75.71
22069;DHT22;13887;57.196;-2.100;2023-06-04T03:21:44;12.70;75.61
22069;DHT22;13887;57.196;-2.100;2023-06-04T03:24:12;12.65;76.06
22069;DHT22;13887;57.196;-2.100;2023-06-04T03:26:39;12.67;75.76
22069;DHT22;13887;57.196;-2.100;2023-06-04T03:29:06;12.64;75.86
22069;DHT22;13887;57.196;-2.100;2023-06-04T03:31:34;12.61;75.67
22069;DHT22;13887;57.196;-2.100;2023-06-04T03:34:01;12.61;75.82
22069;DHT22;13887;57.196;-2.100;2023-06-04T03:36:30;12.62;75.73
22069;DHT22;13887;57.196;-2.100;2023-06-04T03:39:06;12.62;75.92
22069;DHT22;13887;57.196;-2.100;2023-06-04T03:41:33;12.62;75.72
22069;DHT22;13887;57.196;-2.100;2023-06-04T03:44:01;12.63;75.68
22069;DHT22;13887;57.196;-2.100;2023-06-04T03:46:30;12.63;75.75
22069;DHT22;13887;57.196;-2.100;2023-06-04T03:49:02;12.62;75.75
22069;DHT22;13887;57.196;-2.100;2023-06-04T03:51:30;12.60;75.67
22069;DHT22;13887;57.196;-2.100;2023-06-04T03:53:59;12.58;75.59
22069;DHT22;13887;57.196;-2.100;2023-06-04T03:56:26;12.58;75.44
22069;DHT22;13887;57.196;-2.100;2023-06-04T03:58:54;12.60;75.39
22069;DHT22;13887;57.196;-2.100;2023-06-04T04:01:22;12.60;75.47
22069;DHT22;13887;57.196;-2.100;2023-06-04T04:03:59;12.60;75.42
22069;DHT22;13887;57.196;-2.100;2023-06-04T04:06:26;12.60;75.40
22069;DHT22;13887;57.196;-2.100;2023-06-04T04:08:54;12.62;75.31
22069;DHT22;13887;57.196;-2.100;2023-06-04T04:11:22;12.59;75.25
22069;DHT22;13887;57.196;-2.100;2023-06-04T04:13:50;12.59;75.38
22069;DHT22;13887;57.196;-2.100;2023-06-04T04:16:18;12.55;75.50
22069;DHT22;13887;57.196;-2.100;2023-06-04T04:18:46;12.57;75.29
22069;DHT22;13887;57.196;-2.100;2023-06-04T04:21:13;12.53;75.38
22069;DHT22;13887;57.196;-2.100;2023-06-04T04:23:40;12.53;75.36
22069;DHT22;13887;57.196;-2.100;2023-06-04T04:26:09;12.56;75.20
22069;DHT22;13887;57.196;-2.100;2023-06-04T04:28:37;12.58;75.25
22069;DHT22;13887;57.196;-2.100;2023-06-04T04:31:06;12.53;75.69
22069;DHT22;13887;57.196;-2.100;2023-06-04T04:33:38;12.56;75.31
22069;DHT22;13887;57.196;-2.100;2023-06-04T04:36:10;12.55;75.18
22069;DHT22;13887;57.196;-2.100;2023-06-04T04:38:44;12.50;75.57
22069;DHT22;13887;57.196;-2.100;2023-06-04T04:41:28;12.50;75.30
22069;DHT22;13887;57.196;-2.100;2023-06-04T04:44:03;12.56;75.24
22069;DHT22;13887;57.196;-2.100;2023-06-04T04:46:32;12.53;75.24
22069;DHT22;13887;57.196;-2.100;2023-06-04T04:48:59;12.52;75.30
22069;DHT22;13887;57.196;-2.100;2023-06-04T04:51:26;12.52;75.21
22069;DHT22;13887;57.196;-2.100;2023-06-04T04:53:54;12.51;75.18
22069;DHT22;13887;57.196;-2.100;2023-06-04T04:56:24;12.49;75.40
22069;DHT22;13887;57.196;-2.100;2023-06-04T04:58:54;12.48;75.44
22069;DHT22;13887;57.196;-2.100;2023-06-04T05:01:21;12.46;75.31
22069;DHT22;13887;57.196;-2.100;2023-06-04T05:03:48;12.47;75.23
22069;DHT22;13887;57.196;-2.100;2023-06-04T05:06:16;12.48;75.38
22069;DHT22;13887;57.196;-2.100;2023-06-04T05:08:44;12.49;75.24
22069;DHT22;13887;57.196;-2.100;2023-06-04T05:11:12;12.43;75.50
22069;DHT22;13887;57.196;-2.100;2023-06-04T05:13:40;12.46;75.42
22069;DHT22;13887;57.196;-2.100;2023-06-04T05:16:10;12.46;75.44
22069;DHT22;13887;57.196;-2.100;2023-06-04T05:18:41;12.44;75.29
22069;DHT22;13887;57.196;-2.100;2023-06-04T05:21:11;12.41;75.46
22069;DHT22;13887;57.196;-2.100;2023-06-04T05:23:47;12.43;75.35
22069;DHT22;13887;57.196;-2.100;2023-06-04T05:26:17;12.45;75.22
22069;DHT22;13887;57.196;-2.100;2023-06-04T05:28:45;12.47;75.12
22069;DHT22;13887;57.196;-2.100;2023-06-04T05:31:13;12.46;75.21
22069;DHT22;13887;57.196;-2.100;2023-06-04T05:33:43;12.47;75.27
22069;DHT22;13887;57.196;-2.100;2023-06-04T05:36:14;12.46;75.19
22069;DHT22;13887;57.196;-2.100;2023-06-04T05:38:51;12.46;75.19
22069;DHT22;13887;57.196;-2.100;2023-06-04T05:41:30;12.46;75.20
22069;DHT22;13887;57.196;-2.100;2023-06-04T05:43:58;12.51;74.98
22069;DHT22;13887;57.196;-2.100;2023-06-04T05:46:26;12.53;74.73
22069;DHT22;13887;57.196;-2.100;2023-06-04T05:48:54;12.56;74.65
22069;DHT22;13887;57.196;-2.100;2023-06-04T05:51:22;12.56;74.60
22069;DHT22;13887;57.196;-2.100;2023-06-04T05:53:49;12.59;74.26
22069;DHT22;13887;57.196;-2.100;2023-06-04T05:56:17;12.55;74.41
22069;DHT22;13887;57.196;-2.100;2023-06-04T05:58:51;12.53;74.55
22069;DHT22;13887;57.196;-2.100;2023-06-04T06:01:20;12.50;74.72
22069;DHT22;13887;57.196;-2.100;2023-06-04T06:03:50;12.51;74.60
22069;DHT22;13887;57.196;-2.100;2023-06-04T06:06:19;12.51;74.70
22069;DHT22;13887;57.196;-2.100;2023-06-04T06:08:48;12.55;74.62
22069;DHT22;13887;57.196;-2.100;2023-06-04T06:11:17;12.51;74.69
22069;DHT22;13887;57.196;-2.100;2023-06-04T06:13:45;12.52;74.80
22069;DHT22;13887;57.196;-2.100;2023-06-04T06:16:13;12.52;74.78
22069;DHT22;13887;57.196;-2.100;2023-06-04T06:18:40;12.55;74.69
22069;DHT22;13887;57.196;-2.100;2023-06-04T06:21:07;12.55;74.57
22069;DHT22;13887;57.196;-2.100;2023-06-04T06:23:35;12.58;74.47
22069;DHT22;13887;57.196;-2.100;2023-06-04T06:26:03;12.55;74.57
22069;DHT22;13887;57.196;-2.100;2023-06-04T06:28:42;12.57;74.63
22069;DHT22;13887;57.196;-2.100;2023-06-04T06:31:09;12.59;74.56
22069;DHT22;13887;57.196;-2.100;2023-06-04T06:33:37;12.60;74.60
22069;DHT22;13887;57.196;-2.100;2023-06-04T06:36:10;12.61;74.55
22069;DHT22;13887;57.196;-2.100;2023-06-04T06:38:39;12.61;74.47
22069;DHT22;13887;57.196;-2.100;2023-06-04T06:41:07;12.64;74.48
22069;DHT22;13887;57.196;-2.100;2023-06-04T06:43:35;12.66;74.41
22069;DHT22;13887;57.196;-2.100;2023-06-04T06:46:02;12.71;74.20
22069;DHT22;13887;57.196;-2.100;2023-06-04T06:48:29;12.67;74.30
22069;DHT22;13887;57.196;-2.100;2023-06-04T06:50:56;12.65;74.44
22069;DHT22;13887;57.196;-2.100;2023-06-04T06:53:23;12.62;74.76
22069;DHT22;13887;57.196;-2.100;2023-06-04T06:55:50;12.61;74.89
22069;DHT22;13887;57.196;-2.100;2023-06-04T06:58:17;12.59;74.99
22069;DHT22;13887;57.196;-2.100;2023-06-04T07:00:44;12.60;75.05
22069;DHT22;13887;57.196;-2.100;2023-06-04T07:03:13;12.57;74.98
22069;DHT22;13887;57.196;-2.100;2023-06-04T07:05:40;12.60;74.98
22069;DHT22;13887;57.196;-2.100;2023-06-04T07:08:07;12.65;74.57
22069;DHT22;13887;57.196;-2.100;2023-06-04T07:10:34;12.67;74.51
22069;DHT22;13887;57.196;-2.100;2023-06-04T07:13:01;12.72;74.41
22069;DHT22;13887;57.196;-2.100;2023-06-04T07:15:28;12.74;74.12
22069;DHT22;13887;57.196;-2.100;2023-06-04T07:17:55;12.76;74.05
22069;DHT22;13887;57.196;-2.100;2023-06-04T07:20:22;12.77;74.02
22069;DHT22;13887;57.196;-2.100;2023-06-04T07:22:49;12.79;73.87
22069;DHT22;13887;57.196;-2.100;2023-06-04T07:25:16;12.79;74.25
22069;DHT22;13887;57.196;-2.100;2023-06-04T07:27:44;12.78;74.18
22069;DHT22;13887;57.196;-2.100;2023-06-04T07:30:12;12.78;74.15
22069;DHT22;13887;57.196;-2.100;2023-06-04T07:32:39;12.75;74.46
22069;DHT22;13887;57.196;-2.100;2023-06-04T07:35:07;12.76;74.37
22069;DHT22;13887;57.196;-2.100;2023-06-04T07:37:34;12.76;74.47
22069;DHT22;13887;57.196;-2.100;2023-06-04T07:40:03;12.78;74.72
22069;DHT22;13887;57.196;-2.100;2023-06-04T07:42:30;12.76;74.41
22069;DHT22;13887;57.196;-2.100;2023-06-04T07:44:58;12.77;74.47
22069;DHT22;13887;57.196;-2.100;2023-06-04T07:47:25;12.76;74.66
22069;DHT22;13887;57.196;-2.100;2023-06-04T07:49:52;12.72;75.00
22069;DHT22;13887;57.196;-2.100;2023-06-04T07:52:30;12.71;75.19
22069;DHT22;13887;57.196;-2.100;2023-06-04T07:54:57;12.70;75.21
22069;DHT22;13887;57.196;-2.100;2023-06-04T07:57:25;12.69;75.47
22069;DHT22;13887;57.196;-2.100;2023-06-04T07:59:52;12.66;75.38
22069;DHT22;13887;57.196;-2.100;2023-06-04T08:02:19;12.67;75.28
22069;DHT22;13887;57.196;-2.100;2023-06-04T08:04:46;12.69;75.27
22069;DHT22;13887;57.196;-2.100;2023-06-04T08:07:14;12.66;75.56
22069;DHT22;13887;57.196;-2.100;2023-06-04T08:09:41;12.66;75.71
22069;DHT22;13887;57.196;-2.100;2023-06-04T08:12:10;12.69;75.55
22069;DHT22;13887;57.196;-2.100;2023-06-04T08:14:37;12.74;75.26
22069;DHT22;13887;57.196;-2.100;2023-06-04T08:17:05;12.75;75.14
22069;DHT22;13887;57.196;-2.100;2023-06-04T08:19:31;12.76;75.14
22069;DHT22;13887;57.196;-2.100;2023-06-04T08:21:58;12.79;75.18
22069;DHT22;13887;57.196;-2.100;2023-06-04T08:24:27;12.79;75.12
22069;DHT22;13887;57.196;-2.100;2023-06-04T08:26:54;12.76;75.58
22069;DHT22;13887;57.196;-2.100;2023-06-04T08:29:21;12.74;75.54
22069;DHT22;13887;57.196;-2.100;2023-06-04T08:31:48;12.77;75.40
22069;DHT22;13887;57.196;-2.100;2023-06-04T08:34:15;12.78;75.31
22069;DHT22;13887;57.196;-2.100;2023-06-04T08:36:42;12.78;75.30
22069;DHT22;13887;57.196;-2.100;2023-06-04T08:39:09;12.79;75.18
22069;DHT22;13887;57.196;-2.100;2023-06-04T08:41:43;12.79;75.28
22069;DHT22;13887;57.196;-2.100;2023-06-04T08:44:11;12.79;75.52
22069;DHT22;13887;57.196;-2.100;2023-06-04T08:46:39;12.84;75.19
22069;DHT22;13887;57.196;-2.100;2023-06-04T08:49:07;12.85;75.33
22069;DHT22;13887;57.196;-2.100;2023-06-04T08:51:37;12.86;75.16
22069;DHT22;13887;57.196;-2.100;2023-06-04T08:54:05;12.90;75.11
22069;DHT22;13887;57.196;-2.100;2023-06-04T08:56:34;12.91;75.15
22069;DHT22;13887;57.196;-2.100;2023-06-04T08:59:03;12.93;75.38
22069;DHT22;13887;57.196;-2.100;2023-06-04T09:01:31;12.95;75.14
22069;DHT22;13887;57.196;-2.100;2023-06-04T09:04:01;12.99;75.14
22069;DHT22;13887;57.196;-2.100;2023-06-04T09:06:32;13.01;75.21
22069;DHT22;13887;57.196;-2.100;2023-06-04T09:09:01;13.00;75.47
22069;DHT22;13887;57.196;-2.100;2023-06-04T09:11:37;12.95;75.54
22069;DHT22;13887;57.196;-2.100;2023-06-04T09:14:07;12.94;75.35
22069;DHT22;13887;57.196;-2.100;2023-06-04T09:16:48;12.97;75.19
22069;DHT22;13887;57.196;-2.100;2023-06-04T09:19:17;12.99;75.34
22069;DHT22;13887;57.196;-2.100;2023-06-04T09:21:58;12.99;74.99
22069;DHT22;13887;57.196;-2.100;2023-06-04T09:24:47;13.00;75.09
22069;DHT22;13887;57.196;-2.100;2023-06-04T09:27:16;13.02;75.10
22069;DHT22;13887;57.196;-2.100;2023-06-04T09:32:26;13.01;74.83
22069;DHT22;13887;57.196;-2.100;2023-06-04T09:35:11;13.01;74.63
22069;DHT22;13887;57.196;-2.100;2023-06-04T09:37:53;13.05;74.92
22069;DHT22;13887;57.196;-2.100;2023-06-04T09:40:22;13.01;74.76
22069;DHT22;13887;57.196;-2.100;2023-06-04T09:42:50;13.05;74.86
22069;DHT22;13887;57.196;-2.100;2023-06-04T09:45:28;13.10;74.47
22069;DHT22;13887;57.196;-2.100;2023-06-04T09:47:56;13.14;74.37
22069;DHT22;13887;57.196;-2.100;2023-06-04T09:52:58;13.10;75.09
22069;DHT22;13887;57.196;-2.100;2023-06-04T09:55:25;13.11;74.89
22069;DHT22;13887;57.196;-2.100;2023-06-04T09:57:53;13.11;74.82
22069;DHT22;13887;57.196;-2.100;2023-06-04T10:00:21;13.12;74.70
22069;DHT22;13887;57.196;-2.100;2023-06-04T10:02:56;13.14;75.10
22069;DHT22;13887;57.196;-2.100;2023-06-04T10:05:24;13.07;75.12
22069;DHT22;13887;57.196;-2.100;2023-06-04T10:07:52;13.08;74.99
22069;DHT22;13887;57.196;-2.100;2023-06-04T10:10:26;13.11;74.74
22069;DHT22;13887;57.196;-2.100;2023-06-04T10:13:00;13.16;74.42
22069;DHT22;13887;57.196;-2.100;2023-06-04T10:15:29;13.22;74.19
22069;DHT22;13887;57.196;-2.100;2023-06-04T10:17:58;13.25;74.38
22069;DHT22;13887;57.196;-2.100;2023-06-04T10:20:27;13.22;74.73
22069;DHT22;13887;57.196;-2.100;2023-06-04T10:22:55;13.24;74.39
22069;DHT22;13887;57.196;-2.100;2023-06-04T10:25:22;13.30;74.23
22069;DHT22;13887;57.196;-2.100;2023-06-04T10:27:50;13.27;74.53
22069;DHT22;13887;57.196;-2.100;2023-06-04T10:30:18;13.27;74.68
22069;DHT22;13887;57.196;-2.100;2023-06-04T10:32:45;13.32;74.54
22069;DHT22;13887;57.196;-2.100;2023-06-04T10:35:13;13.30;74.98
22069;DHT22;13887;57.196;-2.100;2023-06-04T10:37:42;13.32;74.74
22069;DHT22;13887;57.196;-2.100;2023-06-04T10:40:09;13.34;74.64
22069;DHT22;13887;57.196;-2.100;2023-06-04T10:42:38;13.35;74.87
22069;DHT22;13887;57.196;-2.100;2023-06-04T10:45:07;13.34;74.76
22069;DHT22;13887;57.196;-2.100;2023-06-04T10:47:35;13.36;74.66
22069;DHT22;13887;57.196;-2.100;2023-06-04T10:50:12;13.36;74.49
22069;DHT22;13887;57.196;-2.100;2023-06-04T10:52:53;13.39;74.54
22069;DHT22;13887;57.196;-2.100;2023-06-04T10:55:20;13.43;74.45
22069;DHT22;13887;57.196;-2.100;2023-06-04T10:57:55;13.44;74.55
22069;DHT22;13887;57.196;-2.100;2023-06-04T11:00:34;13.44;74.87
22069;DHT22;13887;57.196;-2.100;2023-06-04T11:03:01;13.46;74.76
22069;DHT22;13887;57.196;-2.100;2023-06-04T11:05:38;13.47;74.74
22069;DHT22;13887;57.196;-2.100;2023-06-04T11:08:06;13.49;74.67
22069;DHT22;13887;57.196;-2.100;2023-06-04T11:10:38;13.51;74.64
22069;DHT22;13887;57.196;-2.100;2023-06-04T11:13:06;13.49;74.93
22069;DHT22;13887;57.196;-2.100;2023-06-04T11:15:41;13.53;74.71
22069;DHT22;13887;57.196;-2.100;2023-06-04T11:18:20;13.54;74.52
22069;DHT22;13887;57.196;-2.100;2023-06-04T11:20:50;13.54;74.53
22069;DHT22;13887;57.196;-2.100;2023-06-04T11:23:17;13.49;74.71
22069;DHT22;13887;57.196;-2.100;2023-06-04T11:25:44;13.47;75.10
22069;DHT22;13887;57.196;-2.100;2023-06-04T11:28:18;13.44;75.22
22069;DHT22;13887;57.196;-2.100;2023-06-04T11:31:04;13.40;75.44
22069;DHT22;13887;57.196;-2.100;2023-06-04T11:33:43;13.39;75.22
22069;DHT22;13887;57.196;-2.100;2023-06-04T11:36:11;13.43;75.21
22069;DHT22;13887;57.196;-2.100;2023-06-04T11:38:59;13.43;75.31
22069;DHT22;13887;57.196;-2.100;2023-06-04T11:41:29;13.38;75.53
22069;DHT22;13887;57.196;-2.100;2023-06-04T11:43:57;13.38;75.47
22069;DHT22;13887;57.196;-2.100;2023-06-04T11:46:24;13.40;75.39
22069;DHT22;13887;57.196;-2.100;2023-06-04T11:48:52;13.43;75.20
22069;DHT22;13887;57.196;-2.100;2023-06-04T11:51:20;13.45;75.23
22069;DHT22;13887;57.196;-2.100;2023-06-04T11:53:48;13.43;75.21
22069;DHT22;13887;57.196;-2.100;2023-06-04T11:56:16;13.45;75.28
22069;DHT22;13887;57.196;-2.100;2023-06-04T11:58:44;13.43;75.28
22069;DHT22;13887;57.196;-2.100;2023-06-04T12:01:13;13.38;75.41
22069;DHT22;13887;57.196;-2.100;2023-06-04T12:03:42;13.30;75.60
22069;DHT22;13887;57.196;-2.100;2023-06-04T12:06:14;13.29;75.63
22069;DHT22;13887;57.196;-2.100;2023-06-04T12:08:50;13.33;75.43
22069;DHT22;13887;57.196;-2.100;2023-06-04T12:11:45;13.38;75.30
22069;DHT22;13887;57.196;-2.100;2023-06-04T12:14:16;13.41;75.40
22069;DHT22;13887;57.196;-2.100;2023-06-04T12:16:57;13.48;75.23
22069;DHT22;13887;57.196;-2.100;2023-06-04T12:19:25;13.51;75.08
22069;DHT22;13887;57.196;-2.100;2023-06-04T12:22:07;13.53;75.04
22069;DHT22;13887;57.196;-2.100;2023-06-04T12:24:45;13.56;75.09
22069;DHT22;13887;57.196;-2.100;2023-06-04T12:27:13;13.62;74.89
22069;DHT22;13887;57.196;-2.100;2023-06-04T12:29:40;13.61;74.98
22069;DHT22;13887;57.196;-2.100;2023-06-04T12:32:08;13.60;74.89
22069;DHT22;13887;57.196;-2.100;2023-06-04T12:34:41;13.62;74.80
22069;DHT22;13887;57.196;-2.100;2023-06-04T12:37:08;13.70;74.45
22069;DHT22;13887;57.196;-2.100;2023-06-04T12:39:36;13.77;74.16
22069;DHT22;13887;57.196;-2.100;2023-06-04T12:42:07;13.86;74.24
22069;DHT22;13887;57.196;-2.100;2023-06-04T12:44:36;13.93;74.21
22069;DHT22;13887;57.196;-2.100;2023-06-04T12:47:03;13.97;73.71
22069;DHT22;13887;57.196;-2.100;2023-06-04T12:49:31;13.92;73.68
22069;DHT22;13887;57.196;-2.100;2023-06-04T12:51:58;13.86;73.99
22069;DHT22;13887;57.196;-2.100;2023-06-04T12:54:26;13.79;74.38
22069;DHT22;13887;57.196;-2.100;2023-06-04T12:56:55;13.75;74.27
22069;DHT22;13887;57.196;-2.100;2023-06-04T12:59:25;13.77;74.08
22069;DHT22;13887;57.196;-2.100;2023-06-04T13:01:53;13.80;74.12
22069;DHT22;13887;57.196;-2.100;2023-06-04T13:04:20;13.74;74.46
22069;DHT22;13887;57.196;-2.100;2023-06-04T13:06:47;13.71;74.38
22069;DHT22;13887;57.196;-2.100;2023-06-04T13:09:15;13.74;74.37
22069;DHT22;13887;57.196;-2.100;2023-06-04T13:11:43;13.71;74.54
22069;DHT22;13887;57.196;-2.100;2023-06-04T13:14:10;13.66;74.50
22069;DHT22;13887;57.196;-2.100;2023-06-04T13:16:38;13.69;74.45
22069;DHT22;13887;57.196;-2.100;2023-06-04T13:19:06;13.67;74.49
22069;DHT22;13887;57.196;-2.100;2023-06-04T13:21:34;13.64;74.35
22069;DHT22;13887;57.196;-2.100;2023-06-04T13:24:02;13.65;74.14
22069;DHT22;13887;57.196;-2.100;2023-06-04T13:26:29;13.70;74.08
22069;DHT22;13887;57.196;-2.100;2023-06-04T13:28:56;13.77;73.77
22069;DHT22;13887;57.196;-2.100;2023-06-04T13:31:24;13.77;74.04
22069;DHT22;13887;57.196;-2.100;2023-06-04T13:33:51;13.77;74.25
22069;DHT22;13887;57.196;-2.100;2023-06-04T13:36:18;13.66;74.20
22069;DHT22;13887;57.196;-2.100;2023-06-04T13:38:45;13.70;74.06
22069;DHT22;13887;57.196;-2.100;2023-06-04T13:41:12;13.76;73.94
22069;DHT22;13887;57.196;-2.100;2023-06-04T13:43:39;13.75;74.06
22069;DHT22;13887;57.196;-2.100;2023-06-04T13:46:06;13.77;73.90
22069;DHT22;13887;57.196;-2.100;2023-06-04T13:48:33;13.78;73.94
22069;DHT22;13887;57.196;-2.100;2023-06-04T13:51:00;13.82;73.74
22069;DHT22;13887;57.196;-2.100;2023-06-04T13:53:27;13.85;73.67
22069;DHT22;13887;57.196;-2.100;2023-06-04T13:55:54;13.86;73.77
22069;DHT22;13887;57.196;-2.100;2023-06-04T13:58:25;13.86;73.67
22069;DHT22;13887;57.196;-2.100;2023-06-04T14:00:53;13.95;73.43
22069;DHT22;13887;57.196;-2.100;2023-06-04T14:03:21;13.97;73.31
22069;DHT22;13887;57.196;-2.100;2023-06-04T14:05:48;13.98;73.18
22069;DHT22;13887;57.196;-2.100;2023-06-04T14:08:15;14.00;73.15
22069;DHT22;13887;57.196;-2.100;2023-06-04T14:10:42;13.99;73.33
22069;DHT22;13887;57.196;-2.100;2023-06-04T14:13:09;14.00;73.08
22069;DHT22;13887;57.196;-2.100;2023-06-04T14:15:37;14.07;72.90
22069;DHT22;13887;57.196;-2.100;2023-06-04T14:18:04;14.08;73.04
22069;DHT22;13887;57.196;-2.100;2023-06-04T14:20:31;14.11;72.91
22069;DHT22;13887;57.196;-2.100;2023-06-04T14:22:58;14.08;73.09
22069;DHT22;13887;57.196;-2.100;2023-06-04T14:25:26;14.09;73.12
22069;DHT22;13887;57.196;-2.100;2023-06-04T14:27:54;14.10;73.15
22069;DHT22;13887;57.196;-2.100;2023-06-04T14:30:21;14.08;73.33
22069;DHT22;13887;57.196;-2.100;2023-06-04T14:32:48;14.07;73.49
22069;DHT22;13887;57.196;-2.100;2023-06-04T14:35:15;14.07;73.15
22069;DHT22;13887;57.196;-2.100;2023-06-04T14:37:42;14.10;73.25
22069;DHT22;13887;57.196;-2.100;2023-06-04T14:40:10;14.14;72.92
22069;DHT22;13887;57.196;-2.100;2023-06-04T14:42:37;14.11;73.18
22069;DHT22;13887;57.196;-2.100;2023-06-04T14:45:04;14.11;73.03
22069;DHT22;13887;57.196;-2.100;2023-06-04T14:47:31;14.15;72.77
22069;DHT22;13887;57.196;-2.100;2023-06-04T14:49:59;14.10;73.38
22069;DHT22;13887;57.196;-2.100;2023-06-04T14:52:26;14.06;73.24
22069;DHT22;13887;57.196;-2.100;2023-06-04T14:54:54;14.08;73.04
22069;DHT22;13887;57.196;-2.100;2023-06-04T14:57:21;14.06;73.07
22069;DHT22;13887;57.196;-2.100;2023-06-04T14:59:49;14.07;72.76
22069;DHT22;13887;57.196;-2.100;2023-06-04T15:02:16;14.12;72.70
22069;DHT22;13887;57.196;-2.100;2023-06-04T15:04:47;14.11;72.85
22069;DHT22;13887;57.196;-2.100;2023-06-04T15:07:14;14.10;72.90
22069;DHT22;13887;57.196;-2.100;2023-06-04T15:09:42;14.12;72.94
22069;DHT22;13887;57.196;-2.100;2023-06-04T15:12:09;14.07;72.99
22069;DHT22;13887;57.196;-2.100;2023-06-04T15:14:36;14.08;72.89
22069;DHT22;13887;57.196;-2.100;2023-06-04T15:17:03;14.10;72.70
22069;DHT22;13887;57.196;-2.100;2023-06-04T15:19:32;14.08;72.88
22069;DHT22;13887;57.196;-2.100;2023-06-04T15:21:59;14.08;72.75
22069;DHT22;13887;57.196;-2.100;2023-06-04T15:24:26;14.08;72.80
22069;DHT22;13887;57.196;-2.100;2023-06-04T15:26:54;14.08;72.62
22069;DHT22;13887;57.196;-2.100;2023-06-04T15:29:21;14.08;72.64
22069;DHT22;13887;57.196;-2.100;2023-06-04T15:31:49;14.09;72.67
22069;DHT22;13887;57.196;-2.100;2023-06-04T15:34:17;14.10;72.62
22069;DHT22;13887;57.196;-2.100;2023-06-04T15:36:45;14.12;72.56
22069;DHT22;13887;57.196;-2.100;2023-06-04T15:39:13;14.09;72.88